sensor_id;sensor_type;location;lat;lon;timestamp;pressure;altitude;pressure_sealevel;temperature;humidity
41515;BME280;27247;48.020;16.720;2023-03-19T00:03:05;99907.72;;;6.43;68.24
41515;BME280;27247;48.020;16.720;2023-03-19T00:07:16;99901.13;;;6.47;68.09
41515;BME280;27247;48.020;16.720;2023-03-19T00:11:26;99907.78;;;6.33;68.74
41515;BME280;27247;48.020;16.720;2023-03-19T00:15:37;99904.28;;;6.32;68.95
41515;BME280;27247;48.020;16.720;2023-03-19T00:19:47;99910.53;;;6.41;68.52
41515;BME280;27247;48.020;16.720;2023-03-19T00:23:57;99920.25;;;6.50;68.46
41515;BME280;27247;48.020;16.720;2023-03-19T00:28:11;99918.97;;;6.54;68.40
41515;BME280;27247;48.020;16.720;2023-03-19T00:32:21;99912.75;;;6.46;68.47
41515;BME280;27247;48.020;16.720;2023-03-19T00:36:31;99906.31;;;6.48;68.44
41515;BME280;27247;48.020;16.720;2023-03-19T00:40:42;99906.09;;;6.32;69.24
41515;BME280;27247;48.020;16.720;2023-03-19T00:44:52;99898.28;;;6.30;69.27
41515;BME280;27247;48.020;16.720;2023-03-19T00:49:02;99905.84;;;6.25;69.69
41515;BME280;27247;48.020;16.720;2023-03-19T00:53:13;99903.47;;;6.22;69.73
41515;BME280;27247;48.020;16.720;2023-03-19T00:57:23;99913.09;;;6.23;70.07
41515;BME280;27247;48.020;16.720;2023-03-19T01:01:34;99906.56;;;6.18;69.59
41515;BME280;27247;48.020;16.720;2023-03-19T01:05:47;99911.59;;;6.11;70.31
41515;BME280;27247;48.020;16.720;2023-03-19T01:09:58;99900.31;;;6.09;70.25
41515;BME280;27247;48.020;16.720;2023-03-19T01:14:08;99900.47;;;5.98;70.63
41515;BME280;27247;48.020;16.720;2023-03-19T01:18:19;99885.53;;;5.87;71.51
41515;BME280;27247;48.020;16.720;2023-03-19T01:22:29;99884.31;;;5.91;71.76
41515;BME280;27247;48.020;16.720;2023-03-19T01:26:40;99871.63;;;5.75;71.75
41515;BME280;27247;48.020;16.720;2023-03-19T01:30:50;99866.75;;;5.71;72.48
41515;BME280;27247;48.020;16.720;2023-03-19T01:35:01;99863.16;;;5.62;72.47
41515;BME280;27247;48.020;16.720;2023-03-19T01:39:11;99856.31;;;5.60;73.01
41515;BME280;27247;48.020;16.720;2023-03-19T01:43:23;99862.75;;;5.57;73.00
41515;BME280;27247;48.020;16.720;2023-03-19T01:47:36;99862.50;;;5.41;73.33
41515;BME280;27247;48.020;16.720;2023-03-19T01:51:48;99854.13;;;5.36;74.02
41515;BME280;27247;48.020;16.720;2023-03-19T01:56:12;99870.16;;;5.15;74.60
41515;BME280;27247;48.020;16.720;2023-03-19T02:00:23;99864.72;;;4.97;75.06
41515;BME280;27247;48.020;16.720;2023-03-19T02:04:35;99865.00;;;4.75;75.86
41515;BME280;27247;48.020;16.720;2023-03-19T02:08:48;99860.94;;;4.52;76.58
41515;BME280;27247;48.020;16.720;2023-03-19T02:13:00;99867.16;;;4.41;77.03
41515;BME280;27247;48.020;16.720;2023-03-19T02:17:10;99857.94;;;4.26;78.08
41515;BME280;27247;48.020;16.720;2023-03-19T02:21:21;99852.25;;;4.00;78.93
41515;BME280;27247;48.020;16.720;2023-03-19T02:29:53;99852.88;;;3.82;80.11
41515;BME280;27247;48.020;16.720;2023-03-19T02:38:33;99877.25;;;3.86;80.68
41515;BME280;27247;48.020;16.720;2023-03-19T02:42:43;99868.16;;;3.79;80.62
41515;BME280;27247;48.020;16.720;2023-03-19T02:46:53;99861.69;;;3.93;80.46
41515;BME280;27247;48.020;16.720;2023-03-19T02:51:04;99869.78;;;4.01;80.26
41515;BME280;27247;48.020;16.720;2023-03-19T02:55:15;99882.25;;;3.89;80.64
41515;BME280;27247;48.020;16.720;2023-03-19T02:59:27;99860.31;;;3.68;81.35
41515;BME280;27247;48.020;16.720;2023-03-19T03:08:44;99868.91;;;3.60;82.12
41515;BME280;27247;48.020;16.720;2023-03-19T03:12:55;99862.97;;;3.47;82.78
41515;BME280;27247;48.020;16.720;2023-03-19T03:17:05;99874.63;;;3.24;82.96
41515;BME280;27247;48.020;16.720;2023-03-19T03:21:17;99875.72;;;2.89;84.09
41515;BME280;27247;48.020;16.720;2023-03-19T03:25:30;99876.97;;;2.74;85.30
41515;BME280;27247;48.020;16.720;2023-03-19T03:29:40;99871.72;;;2.63;85.67
41515;BME280;27247;48.020;16.720;2023-03-19T03:33:51;99889.38;;;2.62;86.04
41515;BME280;27247;48.020;16.720;2023-03-19T03:38:01;99883.13;;;2.63;86.65
41515;BME280;27247;48.020;16.720;2023-03-19T03:42:13;99884.31;;;2.70;86.08
41515;BME280;27247;48.020;16.720;2023-03-19T03:46:23;99891.47;;;2.79;86.24
41515;BME280;27247;48.020;16.720;2023-03-19T03:50:34;99892.56;;;2.77;85.41
41515;BME280;27247;48.020;16.720;2023-03-19T03:54:44;99905.53;;;2.69;86.03
41515;BME280;27247;48.020;16.720;2023-03-19T03:58:54;99912.81;;;2.76;85.02
41515;BME280;27247;48.020;16.720;2023-03-19T04:03:05;99909.59;;;2.73;85.34
41515;BME280;27247;48.020;16.720;2023-03-19T04:07:16;99914.09;;;2.50;86.12
41515;BME280;27247;48.020;16.720;2023-03-19T04:11:27;99920.56;;;2.46;86.92
41515;BME280;27247;48.020;16.720;2023-03-19T04:15:41;99917.69;;;2.49;87.24
41515;BME280;27247;48.020;16.720;2023-03-19T04:19:51;99908.19;;;2.58;86.38
41515;BME280;27247;48.020;16.720;2023-03-19T04:24:02;99912.88;;;2.54;86.28
41515;BME280;27247;48.020;16.720;2023-03-19T04:28:12;99909.16;;;2.56;85.93
41515;BME280;27247;48.020;16.720;2023-03-19T04:32:23;99904.13;;;2.53;85.93
41515;BME280;27247;48.020;16.720;2023-03-19T04:36:34;99919.63;;;2.36;86.80
41515;BME280;27247;48.020;16.720;2023-03-19T04:40:45;99911.47;;;2.28;86.85
41515;BME280;27247;48.020;16.720;2023-03-19T04:44:56;99905.84;;;2.10;87.86
41515;BME280;27247;48.020;16.720;2023-03-19T04:49:07;99910.13;;;2.00;88.79
41515;BME280;27247;48.020;16.720;2023-03-19T04:53:18;99923.66;;;1.84;89.44
41515;BME280;27247;48.020;16.720;2023-03-19T04:57:33;99926.75;;;1.78;89.46
41515;BME280;27247;48.020;16.720;2023-03-19T05:01:43;99920.06;;;1.74;89.85
41515;BME280;27247;48.020;16.720;2023-03-19T05:05:54;99910.97;;;1.78;90.21
41515;BME280;27247;48.020;16.720;2023-03-19T05:10:05;99909.28;;;1.77;90.27
41515;BME280;27247;48.020;16.720;2023-03-19T05:14:15;99919.47;;;1.81;90.50
41515;BME280;27247;48.020;16.720;2023-03-19T05:18:26;99921.28;;;1.92;90.27
41515;BME280;27247;48.020;16.720;2023-03-19T05:22:36;99919.34;;;1.94;90.39
41515;BME280;27247;48.020;16.720;2023-03-19T05:26:46;99925.22;;;1.98;90.19
41515;BME280;27247;48.020;16.720;2023-03-19T05:30:57;99919.59;;;2.02;90.08
41515;BME280;27247;48.020;16.720;2023-03-19T05:35:07;99901.16;;;1.91;89.79
41515;BME280;27247;48.020;16.720;2023-03-19T05:39:18;99906.28;;;1.92;90.56
41515;BME280;27247;48.020;16.720;2023-03-19T05:43:28;99895.75;;;1.92;90.60
41515;BME280;27247;48.020;16.720;2023-03-19T05:47:39;99902.94;;;2.02;90.71
41515;BME280;27247;48.020;16.720;2023-03-19T05:51:49;99900.22;;;2.14;90.42
41515;BME280;27247;48.020;16.720;2023-03-19T05:56:00;99912.69;;;2.23;90.20
41515;BME280;27247;48.020;16.720;2023-03-19T06:00:11;99906.81;;;2.31;89.71
41515;BME280;27247;48.020;16.720;2023-03-19T06:04:22;99913.16;;;2.40;89.20
41515;BME280;27247;48.020;16.720;2023-03-19T06:08:32;99924.50;;;2.51;89.36
41515;BME280;27247;48.020;16.720;2023-03-19T06:12:43;99917.28;;;2.65;89.09
41515;BME280;27247;48.020;16.720;2023-03-19T06:16:53;99915.59;;;2.75;88.19
41515;BME280;27247;48.020;16.720;2023-03-19T06:21:04;99914.34;;;2.90;87.70
41515;BME280;27247;48.020;16.720;2023-03-19T06:25:15;99933.72;;;3.11;87.42
41515;BME280;27247;48.020;16.720;2023-03-19T06:29:25;99941.38;;;3.26;86.92
41515;BME280;27247;48.020;16.720;2023-03-19T06:33:36;99935.31;;;3.35;86.41
41515;BME280;27247;48.020;16.720;2023-03-19T06:37:46;99942.59;;;3.42;86.13
41515;BME280;27247;48.020;16.720;2023-03-19T06:41:58;99935.22;;;3.57;86.13
41515;BME280;27247;48.020;16.720;2023-03-19T06:46:08;99938.03;;;3.65;85.13
41515;BME280;27247;48.020;16.720;2023-03-19T06:50:18;99942.59;;;3.84;84.90
41515;BME280;27247;48.020;16.720;2023-03-19T06:54:29;99943.19;;;3.88;83.82
41515;BME280;27247;48.020;16.720;2023-03-19T06:58:39;99945.28;;;4.14;84.01
41515;BME280;27247;48.020;16.720;2023-03-19T07:02:50;99948.06;;;4.43;82.95
41515;BME280;27247;48.020;16.720;2023-03-19T07:07:00;99957.22;;;4.70;81.80
41515;BME280;27247;48.020;16.720;2023-03-19T07:11:12;99962.00;;;4.95;81.45
41515;BME280;27247;48.020;16.720;2023-03-19T07:15:23;99953.53;;;5.11;80.40
41515;BME280;27247;48.020;16.720;2023-03-19T07:19:34;99961.22;;;5.24;80.85
41515;BME280;27247;48.020;16.720;2023-03-19T07:23:44;99961.09;;;5.35;79.57
41515;BME280;27247;48.020;16.720;2023-03-19T07:27:56;99972.53;;;5.74;79.00
41515;BME280;27247;48.020;16.720;2023-03-19T07:32:08;99971.81;;;6.01;78.72
41515;BME280;27247;48.020;16.720;2023-03-19T07:36:19;99970.63;;;6.32;77.23
41515;BME280;27247;48.020;16.720;2023-03-19T07:40:30;99992.19;;;6.57;75.19
41515;BME280;27247;48.020;16.720;2023-03-19T07:44:41;99995.88;;;7.01;73.59
41515;BME280;27247;48.020;16.720;2023-03-19T07:48:51;99992.47;;;7.36;72.82
41515;BME280;27247;48.020;16.720;2023-03-19T07:53:02;99993.00;;;7.40;70.89
41515;BME280;27247;48.020;16.720;2023-03-19T07:57:13;100001.28;;;7.54;71.72
41515;BME280;27247;48.020;16.720;2023-03-19T08:01:25;99992.13;;;7.75;70.42
41515;BME280;27247;48.020;16.720;2023-03-19T08:05:36;99992.50;;;7.97;69.69
41515;BME280;27247;48.020;16.720;2023-03-19T08:09:46;100008.25;;;7.73;68.07
41515;BME280;27247;48.020;16.720;2023-03-19T08:13:57;99995.72;;;8.09;68.60
41515;BME280;27247;48.020;16.720;2023-03-19T08:18:07;99979.03;;;8.25;68.04
41515;BME280;27247;48.020;16.720;2023-03-19T08:22:18;99988.44;;;8.63;67.04
41515;BME280;27247;48.020;16.720;2023-03-19T08:26:28;100001.50;;;8.74;66.03
41515;BME280;27247;48.020;16.720;2023-03-19T08:30:39;99993.44;;;9.00;65.12
41515;BME280;27247;48.020;16.720;2023-03-19T08:34:49;99998.13;;;9.14;65.81
41515;BME280;27247;48.020;16.720;2023-03-19T08:38:59;99995.50;;;9.31;65.10
41515;BME280;27247;48.020;16.720;2023-03-19T08:43:10;99991.66;;;9.25;64.91
41515;BME280;27247;48.020;16.720;2023-03-19T08:47:21;99993.06;;;9.37;64.28
41515;BME280;27247;48.020;16.720;2023-03-19T08:51:33;99994.25;;;9.51;64.54
41515;BME280;27247;48.020;16.720;2023-03-19T08:55:43;99987.25;;;9.82;63.24
41515;BME280;27247;48.020;16.720;2023-03-19T08:59:54;99989.41;;;10.11;62.94
41515;BME280;27247;48.020;16.720;2023-03-19T09:04:04;99994.56;;;10.37;62.58
41515;BME280;27247;48.020;16.720;2023-03-19T09:08:15;99990.56;;;10.49;60.60
41515;BME280;27247;48.020;16.720;2023-03-19T09:12:25;99989.84;;;10.64;60.90
41515;BME280;27247;48.020;16.720;2023-03-19T09:16:36;99988.78;;;10.81;60.36
41515;BME280;27247;48.020;16.720;2023-03-19T09:20:46;99984.19;;;10.98;59.90
41515;BME280;27247;48.020;16.720;2023-03-19T09:24:57;99983.28;;;11.13;59.55
41515;BME280;27247;48.020;16.720;2023-03-19T09:29:07;99985.25;;;11.19;59.27
41515;BME280;27247;48.020;16.720;2023-03-19T09:33:19;99978.22;;;11.49;59.96
41515;BME280;27247;48.020;16.720;2023-03-19T09:37:30;99980.03;;;11.80;58.13
41515;BME280;27247;48.020;16.720;2023-03-19T09:42:04;99993.81;;;11.38;58.71
41515;BME280;27247;48.020;16.720;2023-03-19T09:46:24;99990.44;;;11.44;59.63
41515;BME280;27247;48.020;16.720;2023-03-19T09:50:36;99982.63;;;11.88;58.84
41515;BME280;27247;48.020;16.720;2023-03-19T09:54:49;99983.88;;;12.00;57.59
41515;BME280;27247;48.020;16.720;2023-03-19T09:59:01;99979.72;;;11.98;57.79
41515;BME280;27247;48.020;16.720;2023-03-19T10:16:33;99963.72;;;11.67;58.72
41515;BME280;27247;48.020;16.720;2023-03-19T10:20:57;99966.13;;;11.76;59.38
41515;BME280;27247;48.020;16.720;2023-03-19T10:25:12;99961.88;;;11.90;58.25
41515;BME280;27247;48.020;16.720;2023-03-19T10:29:25;99962.16;;;11.95;57.91
41515;BME280;27247;48.020;16.720;2023-03-19T10:38:22;99948.09;;;12.60;58.13
41515;BME280;27247;48.020;16.720;2023-03-19T10:47:15;99950.78;;;13.11;56.50
41515;BME280;27247;48.020;16.720;2023-03-19T10:51:26;99950.00;;;12.96;54.72
41515;BME280;27247;48.020;16.720;2023-03-19T10:55:36;99936.03;;;13.36;55.24
41515;BME280;27247;48.020;16.720;2023-03-19T10:59:47;99935.25;;;13.85;54.44
41515;BME280;27247;48.020;16.720;2023-03-19T11:03:58;99925.53;;;14.12;53.15
41515;BME280;27247;48.020;16.720;2023-03-19T11:08:18;99931.38;;;14.22;53.03
41515;BME280;27247;48.020;16.720;2023-03-19T11:12:34;99925.16;;;14.50;52.78
41515;BME280;27247;48.020;16.720;2023-03-19T11:16:57;99925.75;;;14.80;53.02
41515;BME280;27247;48.020;16.720;2023-03-19T11:21:29;99938.38;;;14.17;52.35
41515;BME280;27247;48.020;16.720;2023-03-19T11:25:42;99934.97;;;14.01;53.56
41515;BME280;27247;48.020;16.720;2023-03-19T11:29:56;99933.09;;;14.30;52.22
41515;BME280;27247;48.020;16.720;2023-03-19T11:38:41;99934.03;;;14.78;53.14
41515;BME280;27247;48.020;16.720;2023-03-19T11:47:33;99919.44;;;15.14;51.20
41515;BME280;27247;48.020;16.720;2023-03-19T11:51:58;99919.34;;;14.81;50.49
41515;BME280;27247;48.020;16.720;2023-03-19T12:00:29;99906.13;;;14.92;50.43
41515;BME280;27247;48.020;16.720;2023-03-19T12:09:03;99897.66;;;14.48;51.09
41515;BME280;27247;48.020;16.720;2023-03-19T12:18:13;99894.19;;;15.08;49.87
41515;BME280;27247;48.020;16.720;2023-03-19T12:36:19;99866.03;;;15.24;49.72
41515;BME280;27247;48.020;16.720;2023-03-19T12:40:36;99867.88;;;14.49;50.03
41515;BME280;27247;48.020;16.720;2023-03-19T12:44:52;99871.06;;;14.59;51.07
41515;BME280;27247;48.020;16.720;2023-03-19T12:49:09;99866.13;;;14.69;50.89
41515;BME280;27247;48.020;16.720;2023-03-19T12:58:02;99857.56;;;15.33;50.75
41515;BME280;27247;48.020;16.720;2023-03-19T13:06:33;99856.91;;;15.05;49.50
41515;BME280;27247;48.020;16.720;2023-03-19T13:10:44;99841.97;;;14.96;49.50
41515;BME280;27247;48.020;16.720;2023-03-19T13:19:26;99837.53;;;15.69;50.40
41515;BME280;27247;48.020;16.720;2023-03-19T13:23:40;99834.41;;;15.85;48.55
41515;BME280;27247;48.020;16.720;2023-03-19T13:27:53;99830.66;;;15.93;49.44
41515;BME280;27247;48.020;16.720;2023-03-19T13:32:21;99838.72;;;16.00;48.98
41515;BME280;27247;48.020;16.720;2023-03-19T13:36:37;99834.56;;;16.04;48.42
41515;BME280;27247;48.020;16.720;2023-03-19T13:40:55;99841.22;;;15.94;49.61
41515;BME280;27247;48.020;16.720;2023-03-19T13:54:31;99830.97;;;16.29;48.30
41515;BME280;27247;48.020;16.720;2023-03-19T13:59:17;99825.56;;;16.87;46.71
41515;BME280;27247;48.020;16.720;2023-03-19T14:07:36;99805.28;;;16.78;47.68
41515;BME280;27247;48.020;16.720;2023-03-19T14:11:47;99795.13;;;16.74;48.32
41515;BME280;27247;48.020;16.720;2023-03-19T14:16:16;99794.34;;;16.67;48.08
41515;BME280;27247;48.020;16.720;2023-03-19T14:20:31;99789.50;;;16.24;48.55
41515;BME280;27247;48.020;16.720;2023-03-19T14:25:12;99786.34;;;15.69;48.88
41515;BME280;27247;48.020;16.720;2023-03-19T14:29:24;99792.53;;;15.37;49.38
41515;BME280;27247;48.020;16.720;2023-03-19T14:37:49;99780.94;;;15.29;49.92
41515;BME280;27247;48.020;16.720;2023-03-19T14:42:15;99778.44;;;15.34;49.23
41515;BME280;27247;48.020;16.720;2023-03-19T14:46:37;99787.34;;;15.09;49.54
41515;BME280;27247;48.020;16.720;2023-03-19T14:55:17;99780.72;;;15.05;49.43
41515;BME280;27247;48.020;16.720;2023-03-19T14:59:36;99783.41;;;14.91;49.96
41515;BME280;27247;48.020;16.720;2023-03-19T15:03:52;99780.69;;;14.85;50.33
41515;BME280;27247;48.020;16.720;2023-03-19T15:08:09;99777.38;;;14.76;50.25
41515;BME280;27247;48.020;16.720;2023-03-19T15:12:33;99786.47;;;14.75;50.50
41515;BME280;27247;48.020;16.720;2023-03-19T15:17:13;99786.88;;;14.65;50.49
41515;BME280;27247;48.020;16.720;2023-03-19T15:21:29;99772.41;;;14.80;50.41
41515;BME280;27247;48.020;16.720;2023-03-19T15:25:45;99780.88;;;14.70;50.36
41515;BME280;27247;48.020;16.720;2023-03-19T15:29:56;99784.38;;;14.64;50.72
41515;BME280;27247;48.020;16.720;2023-03-19T15:34:24;99788.53;;;14.66;50.87
41515;BME280;27247;48.020;16.720;2023-03-19T15:38:42;99783.91;;;14.54;51.02
41515;BME280;27247;48.020;16.720;2023-03-19T15:42:57;99790.75;;;14.56;51.39
41515;BME280;27247;48.020;16.720;2023-03-19T15:47:13;99806.38;;;14.39;51.05
41515;BME280;27247;48.020;16.720;2023-03-19T15:51:26;99800.78;;;14.34;50.79
41515;BME280;27247;48.020;16.720;2023-03-19T15:55:38;99806.16;;;14.34;51.23
41515;BME280;27247;48.020;16.720;2023-03-19T15:59:51;99798.72;;;14.36;51.62
41515;BME280;27247;48.020;16.720;2023-03-19T16:04:11;99802.19;;;14.30;51.77
41515;BME280;27247;48.020;16.720;2023-03-19T16:08:26;99810.88;;;14.26;51.64
41515;BME280;27247;48.020;16.720;2023-03-19T16:12:39;99809.59;;;14.22;51.40
41515;BME280;27247;48.020;16.720;2023-03-19T16:16:50;99813.31;;;14.21;51.53
41515;BME280;27247;48.020;16.720;2023-03-19T16:21:08;99823.69;;;14.24;51.60
41515;BME280;27247;48.020;16.720;2023-03-19T16:25:22;99814.81;;;14.30;51.41
41515;BME280;27247;48.020;16.720;2023-03-19T16:29:42;99822.75;;;14.03;51.48
41515;BME280;27247;48.020;16.720;2023-03-19T16:33:54;99825.16;;;13.92;52.25
41515;BME280;27247;48.020;16.720;2023-03-19T16:42:39;99833.25;;;13.98;51.88
41515;BME280;27247;48.020;16.720;2023-03-19T16:46:50;99839.66;;;13.97;52.21
41515;BME280;27247;48.020;16.720;2023-03-19T16:51:01;99849.97;;;13.94;52.96
41515;BME280;27247;48.020;16.720;2023-03-19T16:55:21;99854.19;;;13.75;54.46
41515;BME280;27247;48.020;16.720;2023-03-19T16:59:32;99856.78;;;13.62;54.80
41515;BME280;27247;48.020;16.720;2023-03-19T17:03:44;99849.03;;;13.52;54.89
41515;BME280;27247;48.020;16.720;2023-03-19T17:07:56;99862.34;;;13.39;55.21
41515;BME280;27247;48.020;16.720;2023-03-19T17:12:13;99864.66;;;13.06;55.46
41515;BME280;27247;48.020;16.720;2023-03-19T17:16:26;99867.59;;;12.90;55.71
41515;BME280;27247;48.020;16.720;2023-03-19T17:20:44;99871.16;;;12.75;53.92
41515;BME280;27247;48.020;16.720;2023-03-19T17:24:57;99868.13;;;12.34;54.54
41515;BME280;27247;48.020;16.720;2023-03-19T17:29:08;99870.47;;;12.23;54.57
41515;BME280;27247;48.020;16.720;2023-03-19T17:33:25;99866.56;;;11.96;55.72
41515;BME280;27247;48.020;16.720;2023-03-19T17:37:36;99866.78;;;11.71;57.19
41515;BME280;27247;48.020;16.720;2023-03-19T17:41:47;99860.22;;;11.59;57.70
41515;BME280;27247;48.020;16.720;2023-03-19T17:45:58;99863.63;;;11.53;58.08
41515;BME280;27247;48.020;16.720;2023-03-19T17:50:22;99861.59;;;11.32;58.61
41515;BME280;27247;48.020;16.720;2023-03-19T17:54:34;99871.59;;;11.15;59.22
41515;BME280;27247;48.020;16.720;2023-03-19T17:58:46;99870.69;;;11.00;57.30
41515;BME280;27247;48.020;16.720;2023-03-19T18:02:57;99876.56;;;10.73;57.18
41515;BME280;27247;48.020;16.720;2023-03-19T18:07:08;99887.63;;;10.62;59.54
41515;BME280;27247;48.020;16.720;2023-03-19T18:11:20;99889.72;;;10.43;60.29
41515;BME280;27247;48.020;16.720;2023-03-19T18:15:32;99881.38;;;10.38;60.58
41515;BME280;27247;48.020;16.720;2023-03-19T18:19:44;99882.56;;;10.19;61.38
41515;BME280;27247;48.020;16.720;2023-03-19T18:23:57;99881.44;;;10.06;61.58
41515;BME280;27247;48.020;16.720;2023-03-19T18:28:08;99887.47;;;10.00;61.81
41515;BME280;27247;48.020;16.720;2023-03-19T18:32:29;99878.59;;;10.07;61.68
41515;BME280;27247;48.020;16.720;2023-03-19T18:36:41;99881.66;;;9.80;62.15
41515;BME280;27247;48.020;16.720;2023-03-19T18:40:53;99883.53;;;9.63;62.84
41515;BME280;27247;48.020;16.720;2023-03-19T18:45:04;99890.38;;;9.41;60.22
41515;BME280;27247;48.020;16.720;2023-03-19T18:49:20;99877.84;;;9.25;59.60
41515;BME280;27247;48.020;16.720;2023-03-19T18:53:36;99887.66;;;9.25;59.74
41515;BME280;27247;48.020;16.720;2023-03-19T18:57:53;99892.63;;;8.87;58.76
41515;BME280;27247;48.020;16.720;2023-03-19T19:02:30;99889.91;;;8.71;59.33
41515;BME280;27247;48.020;16.720;2023-03-19T19:06:43;99905.88;;;8.63;61.13
41515;BME280;27247;48.020;16.720;2023-03-19T19:11:00;99892.38;;;8.30;60.55
41515;BME280;27247;48.020;16.720;2023-03-19T19:15:31;99908.75;;;8.36;61.31
41515;BME280;27247;48.020;16.720;2023-03-19T19:19:43;99904.81;;;8.22;62.22
41515;BME280;27247;48.020;16.720;2023-03-19T19:23:54;99909.72;;;8.09;64.39
41515;BME280;27247;48.020;16.720;2023-03-19T19:28:29;99908.50;;;7.95;66.33
41515;BME280;27247;48.020;16.720;2023-03-19T19:32:43;99904.22;;;7.76;67.87
41515;BME280;27247;48.020;16.720;2023-03-19T19:36:54;99911.72;;;7.81;68.49
41515;BME280;27247;48.020;16.720;2023-03-19T19:41:12;99911.94;;;7.87;67.96
41515;BME280;27247;48.020;16.720;2023-03-19T19:45:35;99916.16;;;7.98;67.55
41515;BME280;27247;48.020;16.720;2023-03-19T19:49:46;99916.47;;;7.95;67.44
41515;BME280;27247;48.020;16.720;2023-03-19T19:53:57;99912.91;;;7.86;67.91
41515;BME280;27247;48.020;16.720;2023-03-19T19:58:29;99913.69;;;7.79;68.06
41515;BME280;27247;48.020;16.720;2023-03-19T20:02:41;99910.53;;;7.75;67.94
41515;BME280;27247;48.020;16.720;2023-03-19T20:06:52;99911.44;;;7.66;69.97
41515;BME280;27247;48.020;16.720;2023-03-19T20:11:15;99917.53;;;7.58;69.81
41515;BME280;27247;48.020;16.720;2023-03-19T20:15:32;99921.44;;;7.46;70.64
41515;BME280;27247;48.020;16.720;2023-03-19T20:19:43;99921.97;;;7.50;71.05
41515;BME280;27247;48.020;16.720;2023-03-19T20:23:56;99921.50;;;7.54;69.62
41515;BME280;27247;48.020;16.720;2023-03-19T20:28:18;99924.63;;;7.50;66.98
41515;BME280;27247;48.020;16.720;2023-03-19T20:32:35;99920.75;;;7.44;67.18
41515;BME280;27247;48.020;16.720;2023-03-19T20:36:46;99921.50;;;7.54;66.25
41515;BME280;27247;48.020;16.720;2023-03-19T20:40:57;99921.06;;;7.41;65.58
41515;BME280;27247;48.020;16.720;2023-03-19T20:45:23;99926.75;;;7.28;65.93
41515;BME280;27247;48.020;16.720;2023-03-19T20:49:37;99930.53;;;7.26;67.61
41515;BME280;27247;48.020;16.720;2023-03-19T20:53:48;99929.16;;;7.04;69.11
41515;BME280;27247;48.020;16.720;2023-03-19T20:58:02;99932.19;;;6.91;69.45
41515;BME280;27247;48.020;16.720;2023-03-19T21:02:22;99937.44;;;7.01;70.73
41515;BME280;27247;48.020;16.720;2023-03-19T21:06:37;99927.09;;;6.98;72.56
41515;BME280;27247;48.020;16.720;2023-03-19T21:10:49;99938.03;;;6.95;73.77
41515;BME280;27247;48.020;16.720;2023-03-19T21:15:03;99927.56;;;6.93;74.12
41515;BME280;27247;48.020;16.720;2023-03-19T21:19:13;99927.75;;;6.82;72.24
41515;BME280;27247;48.020;16.720;2023-03-19T21:23:34;99929.59;;;6.82;70.99
41515;BME280;27247;48.020;16.720;2023-03-19T21:27:49;99934.06;;;6.81;70.90
41515;BME280;27247;48.020;16.720;2023-03-19T21:32:01;99933.00;;;6.74;71.65
41515;BME280;27247;48.020;16.720;2023-03-19T21:36:13;99940.41;;;6.70;71.86
41515;BME280;27247;48.020;16.720;2023-03-19T21:40:29;99930.53;;;6.63;72.00
41515;BME280;27247;48.020;16.720;2023-03-19T21:44:40;99931.81;;;6.59;71.87
41515;BME280;27247;48.020;16.720;2023-03-19T21:48:52;99931.88;;;6.49;71.13
41515;BME280;27247;48.020;16.720;2023-03-19T21:53:03;99931.31;;;6.46;72.81
41515;BME280;27247;48.020;16.720;2023-03-19T21:57:15;99939.81;;;6.12;74.73
41515;BME280;27247;48.020;16.720;2023-03-19T22:01:25;99942.19;;;6.05;75.00
41515;BME280;27247;48.020;16.720;2023-03-19T22:05:36;99944.31;;;6.02;75.37
41515;BME280;27247;48.020;16.720;2023-03-19T22:09:47;99932.31;;;5.88;74.04
41515;BME280;27247;48.020;16.720;2023-03-19T22:14:04;99936.66;;;5.89;72.37
41515;BME280;27247;48.020;16.720;2023-03-19T22:18:15;99946.69;;;5.95;70.36
41515;BME280;27247;48.020;16.720;2023-03-19T22:22:26;99942.53;;;5.54;68.82
41515;BME280;27247;48.020;16.720;2023-03-19T22:26:38;99944.91;;;5.57;70.48
41515;BME280;27247;48.020;16.720;2023-03-19T22:30:49;99931.94;;;5.44;72.74
41515;BME280;27247;48.020;16.720;2023-03-19T22:35:00;99946.19;;;5.34;72.19
41515;BME280;27247;48.020;16.720;2023-03-19T22:39:10;99936.56;;;5.33;71.88
41515;BME280;27247;48.020;16.720;2023-03-19T22:43:32;99933.50;;;5.37;71.84
41515;BME280;27247;48.020;16.720;2023-03-19T22:47:44;99943.53;;;5.24;73.14
41515;BME280;27247;48.020;16.720;2023-03-19T22:51:55;99934.47;;;5.27;74.23
41515;BME280;27247;48.020;16.720;2023-03-19T22:56:08;99936.28;;;5.26;75.10
41515;BME280;27247;48.020;16.720;2023-03-19T23:00:21;99946.03;;;5.35;75.16
41515;BME280;27247;48.020;16.720;2023-03-19T23:04:32;99950.31;;;5.17;76.83
41515;BME280;27247;48.020;16.720;2023-03-19T23:08:43;99951.63;;;5.42;77.72
41515;BME280;27247;48.020;16.720;2023-03-19T23:12:54;99942.13;;;5.30;77.36
41515;BME280;27247;48.020;16.720;2023-03-19T23:17:15;99935.28;;;5.18;76.89
41515;BME280;27247;48.020;16.720;2023-03-19T23:21:28;99938.09;;;5.26;75.83
41515;BME280;27247;48.020;16.720;2023-03-19T23:25:41;99942.78;;;5.03;74.87
41515;BME280;27247;48.020;16.720;2023-03-19T23:29:52;99953.78;;;4.98;73.59
41515;BME280;27247;48.020;16.720;2023-03-19T23:34:02;99950.41;;;4.87;73.10
41515;BME280;27247;48.020;16.720;2023-03-19T23:38:13;99958.63;;;4.74;74.05
41515;BME280;27247;48.020;16.720;2023-03-19T23:42:26;99949.63;;;4.46;75.27
41515;BME280;27247;48.020;16.720;2023-03-19T23:46:40;99956.00;;;4.43;76.13
41515;BME280;27247;48.020;16.720;2023-03-19T23:50:51;99952.53;;;4.43;77.08
41515;BME280;27247;48.020;16.720;2023-03-19T23:55:02;99960.06;;;4.47;77.86
41515;BME280;27247;48.020;16.720;2023-03-19T23:59:12;99960.09;;;4.57;78.10
